createdAt,value
2023-01-30T00:01:00.610Z,-1.10
2023-01-30T00:03:28.262Z,-1.20
2023-01-30T00:05:55.798Z,-1.20
2023-01-30T00:08:23.301Z,-1.10
2023-01-30T00:10:51.048Z,-1.20
2023-01-30T00:13:18.546Z,-1.20
2023-01-30T00:15:45.951Z,-1.10
2023-01-30T00:18:13.431Z,-1.10
2023-01-30T00:20:40.982Z,-1.10
2023-01-30T00:23:08.342Z,-1.10
2023-01-30T00:25:35.897Z,-1.20
2023-01-30T00:28:03.630Z,-1.20
2023-01-30T00:30:30.942Z,-1.20
2023-01-30T00:32:59.106Z,-1.30
2023-01-30T00:35:28.962Z,-1.30
2023-01-30T00:37:57.412Z,-1.20
2023-01-30T00:40:25.925Z,-1.20
2023-01-30T00:46:03.159Z,-1.10
2023-01-30T00:48:30.946Z,-1.30
2023-01-30T00:50:58.638Z,-1.20
2023-01-30T00:53:26.776Z,-1.20
2023-01-30T00:55:54.469Z,-1.40
2023-01-30T00:58:22.210Z,-1.30
2023-01-30T01:00:50.061Z,-1.30
2023-01-30T01:03:18.299Z,-1.10
2023-01-30T01:05:45.944Z,-1.20
2023-01-30T01:08:13.576Z,-1.10
2023-01-30T01:10:41.093Z,-1.00
2023-01-30T01:13:08.451Z,-1.10
2023-01-30T01:15:36.203Z,-1.00
2023-01-30T01:18:03.483Z,-1.00
2023-01-30T01:20:30.855Z,-1.00
2023-01-30T01:22:58.571Z,-1.00
2023-01-30T01:25:26.108Z,-1.00
2023-01-30T01:27:54.275Z,-1.00
2023-01-30T01:30:21.731Z,-1.00
2023-01-30T01:32:49.191Z,-1.10
2023-01-30T01:35:17.028Z,-1.10
2023-01-30T01:37:44.424Z,-1.20
2023-01-30T01:40:34.911Z,-1.20
2023-01-30T01:43:03.032Z,-1.10
2023-01-30T01:45:30.382Z,-1.20
2023-01-30T01:48:04.932Z,-1.30
2023-01-30T01:50:44.586Z,-1.20
2023-01-30T01:53:12.816Z,-1.20
2023-01-30T01:55:40.200Z,-1.00
2023-01-30T01:58:11.247Z,-1.00
2023-01-30T02:00:38.832Z,-0.90
2023-01-30T02:03:08.489Z,-0.90
2023-01-30T02:05:38.126Z,-1.00
2023-01-30T02:08:15.467Z,-1.00
2023-01-30T02:11:33.803Z,-1.20
2023-01-30T02:14:01.088Z,-1.20
2023-01-30T02:16:28.542Z,-1.10
2023-01-30T02:18:55.938Z,-1.10
2023-01-30T02:21:44.766Z,-1.00
2023-01-30T02:24:31.003Z,-1.10
2023-01-30T02:27:07.403Z,-1.10
2023-01-30T02:29:52.009Z,-1.10
2023-01-30T02:32:28.214Z,-1.10
2023-01-30T02:35:37.056Z,-1.00
2023-01-30T02:38:25.044Z,-1.10
2023-01-30T02:41:07.025Z,-1.10
2023-01-30T02:43:47.195Z,-1.10
2023-01-30T02:46:51.952Z,-1.10
2023-01-30T02:49:31.255Z,-1.10
2023-01-30T02:51:58.607Z,-1.30
2023-01-30T02:54:25.981Z,-1.20
2023-01-30T02:56:57.678Z,-1.10
2023-01-30T02:59:42.306Z,-1.20
2023-01-30T03:02:32.636Z,-1.20
2023-01-30T03:05:07.855Z,-1.10
2023-01-30T03:07:50.437Z,-1.20
2023-01-30T03:10:20.254Z,-1.10
2023-01-30T03:12:53.464Z,-1.30
2023-01-30T03:15:34.421Z,-1.20
2023-01-30T03:18:02.418Z,-1.30
2023-01-30T03:20:29.520Z,-1.30
2023-01-30T03:22:56.903Z,-1.30
2023-01-30T03:25:27.026Z,-1.20
2023-01-30T03:27:55.008Z,-1.20
2023-01-30T03:30:23.633Z,-1.20
2023-01-30T03:32:51.109Z,-1.20
2023-01-30T03:35:18.713Z,-1.20
2023-01-30T03:37:46.843Z,-1.20
2023-01-30T03:40:15.219Z,-1.30
2023-01-30T03:42:42.470Z,-1.30
2023-01-30T03:45:11.259Z,-1.20
2023-01-30T03:47:38.749Z,-1.10
2023-01-30T03:50:06.434Z,-1.20
2023-01-30T03:52:35.657Z,-1.30
2023-01-30T03:55:03.725Z,-1.20
2023-01-30T03:57:31.787Z,-1.40
2023-01-30T03:59:59.423Z,-1.40
2023-01-30T04:02:26.873Z,-1.30
2023-01-30T04:04:54.364Z,-1.40
2023-01-30T04:07:21.779Z,-1.40
2023-01-30T04:09:49.174Z,-1.30
2023-01-30T04:12:16.556Z,-1.40
2023-01-30T04:14:44.014Z,-1.40
2023-01-30T04:17:11.500Z,-1.40
2023-01-30T04:19:38.929Z,-1.40
2023-01-30T04:22:06.298Z,-1.30
2023-01-30T04:24:33.736Z,-1.40
2023-01-30T04:27:01.159Z,-1.40
2023-01-30T04:29:28.283Z,-1.50
2023-01-30T04:31:55.888Z,-1.40
2023-01-30T04:34:23.107Z,-1.50
2023-01-30T04:36:50.440Z,-1.50
2023-01-30T04:39:20.007Z,-1.30
2023-01-30T04:41:48.608Z,-1.20
2023-01-30T04:44:15.750Z,-1.20
2023-01-30T04:46:43.245Z,-1.30
2023-01-30T04:49:11.249Z,-1.30
2023-01-30T04:51:38.734Z,-1.20
2023-01-30T04:54:07.066Z,-1.20
2023-01-30T04:56:34.713Z,-1.20
2023-01-30T04:59:02.160Z,-1.20
2023-01-30T05:01:37.371Z,-1.20
2023-01-30T05:04:05.445Z,-1.20
2023-01-30T05:06:33.395Z,-1.20
2023-01-30T05:09:01.103Z,-1.10
2023-01-30T05:11:29.259Z,-1.10
2023-01-30T05:13:56.632Z,-1.10
2023-01-30T05:16:24.056Z,-1.10
2023-01-30T05:18:51.477Z,-1.10
2023-01-30T05:21:20.624Z,-1.10
2023-01-30T05:23:48.214Z,-1.20
2023-01-30T05:26:15.872Z,-1.10
2023-01-30T05:28:43.473Z,-1.10
2023-01-30T05:31:12.559Z,-1.10
2023-01-30T05:33:40.340Z,-1.20
2023-01-30T05:36:08.177Z,-1.20
2023-01-30T05:38:35.675Z,-1.20
2023-01-30T05:41:07.234Z,-1.20
2023-01-30T05:43:35.847Z,-1.20
2023-01-30T05:46:04.652Z,-1.20
2023-01-30T05:48:32.172Z,-1.20
2023-01-30T05:51:00.244Z,-1.10
2023-01-30T05:53:29.061Z,-1.20
2023-01-30T05:55:57.499Z,-1.10
2023-01-30T05:58:24.961Z,-1.10
2023-01-30T06:00:52.225Z,-1.20
2023-01-30T06:03:19.535Z,-1.20
2023-01-30T06:05:46.849Z,-1.10
2023-01-30T06:08:14.305Z,-1.30
2023-01-30T06:10:41.936Z,-1.40
2023-01-30T06:13:11.416Z,-1.30
2023-01-30T06:15:39.440Z,-1.40
2023-01-30T06:18:06.745Z,-1.40
2023-01-30T06:20:34.131Z,-1.40
2023-01-30T06:23:01.397Z,-1.20
2023-01-30T06:25:28.734Z,-1.30
2023-01-30T06:27:56.314Z,-1.30
2023-01-30T06:30:24.185Z,-1.30
2023-01-30T06:32:52.009Z,-1.40
2023-01-30T06:35:19.788Z,-1.40
2023-01-30T06:37:47.355Z,-1.40
2023-01-30T06:40:14.829Z,-1.40
2023-01-30T06:42:46.756Z,-1.40
2023-01-30T06:45:14.991Z,-1.40
2023-01-30T06:47:52.643Z,-1.40
2023-01-30T06:50:21.218Z,-1.30
2023-01-30T06:52:50.193Z,-1.40
2023-01-30T06:55:20.317Z,-1.30
2023-01-30T06:57:48.007Z,-1.20
2023-01-30T07:00:17.952Z,-1.40
2023-01-30T07:02:45.858Z,-1.40
2023-01-30T07:05:13.350Z,-1.40
2023-01-30T07:07:40.624Z,-1.30
2023-01-30T07:10:09.396Z,-1.30
2023-01-30T07:12:37.149Z,-1.40
2023-01-30T07:15:05.716Z,-1.30
2023-01-30T07:17:33.296Z,-1.30
2023-01-30T07:20:00.728Z,-1.20
2023-01-30T07:22:28.172Z,-1.30
2023-01-30T07:24:55.792Z,-1.30
2023-01-30T07:27:23.142Z,-1.40
2023-01-30T07:29:51.878Z,-1.30
2023-01-30T07:32:20.309Z,-1.40
2023-01-30T07:34:48.161Z,-1.30
2023-01-30T07:37:15.884Z,-1.50
2023-01-30T07:39:43.523Z,-1.40
2023-01-30T07:42:10.933Z,-1.40
2023-01-30T07:44:38.413Z,-1.40
2023-01-30T07:47:05.892Z,-1.30
2023-01-30T07:49:33.211Z,-1.10
2023-01-30T07:52:00.792Z,-1.20
2023-01-30T07:54:28.185Z,-1.20
2023-01-30T07:56:55.519Z,-1.10
2023-01-30T07:59:23.074Z,-1.00
2023-01-30T08:01:50.397Z,-1.10
2023-01-30T08:04:17.875Z,-1.10
2023-01-30T08:06:45.225Z,-1.10
2023-01-30T08:09:12.566Z,-1.10
2023-01-30T08:11:40.259Z,-1.20
2023-01-30T08:14:07.590Z,-1.10
2023-01-30T08:16:34.975Z,-1.20
2023-01-30T08:19:04.409Z,-1.20
2023-01-30T08:21:31.763Z,-1.20
2023-01-30T08:24:01.020Z,-1.10
2023-01-30T08:26:29.148Z,-1.10
2023-01-30T08:28:56.718Z,-1.10
2023-01-30T08:31:24.081Z,-1.10
2023-01-30T08:33:51.547Z,-1.00
2023-01-30T08:36:18.894Z,-1.10
2023-01-30T08:38:46.192Z,-1.00
2023-01-30T08:41:13.686Z,-1.10
2023-01-30T08:43:41.051Z,-1.00
2023-01-30T08:46:08.763Z,-0.90
2023-01-30T08:48:49.155Z,-0.80
2023-01-30T08:51:17.562Z,-0.70
2023-01-30T08:53:44.894Z,-0.60
2023-01-30T08:56:12.339Z,-0.60
2023-01-30T08:58:39.836Z,-0.70
2023-01-30T09:01:07.970Z,-0.80
2023-01-30T09:03:35.767Z,-0.70
2023-01-30T09:06:03.360Z,-0.70
2023-01-30T09:08:30.648Z,-0.70
2023-01-30T09:11:01.753Z,-0.60
2023-01-30T09:13:29.231Z,-0.60
2023-01-30T09:15:56.904Z,-0.50
2023-01-30T09:18:24.823Z,-0.40
2023-01-30T09:20:52.892Z,-0.20
2023-01-30T09:23:21.213Z,-0.20
2023-01-30T09:25:48.628Z,-0.40
2023-01-30T09:28:15.936Z,-0.60
2023-01-30T09:30:43.466Z,-0.50
2023-01-30T09:33:10.967Z,-0.60
2023-01-30T09:35:38.382Z,-0.40
2023-01-30T09:38:06.055Z,-0.20
2023-01-30T09:40:33.597Z,-0.30
2023-01-30T09:43:25.348Z,-0.30
2023-01-30T09:46:01.693Z,-0.20
2023-01-30T09:48:45.005Z,-0.20
2023-01-30T09:51:33.630Z,-0.20
2023-01-30T09:54:36.515Z,-0.30
2023-01-30T09:57:23.786Z,-0.30
2023-01-30T10:00:02.946Z,-0.30
2023-01-30T10:02:47.916Z,-0.30
2023-01-30T10:05:15.600Z,-0.30
2023-01-30T10:07:49.842Z,-0.30
2023-01-30T10:11:00.829Z,-0.20
2023-01-30T10:13:44.110Z,-0.30
2023-01-30T10:16:25.822Z,-0.20
2023-01-30T10:19:34.911Z,-0.10
2023-01-30T10:22:20.043Z,-0.10
2023-01-30T10:25:13.130Z,-0.20
2023-01-30T10:27:47.094Z,0.00
2023-01-30T10:30:15.139Z,0.00
2023-01-30T10:33:04.426Z,0.10
2023-01-30T10:35:39.674Z,0.20
2023-01-30T10:38:21.396Z,0.20
2023-01-30T10:41:17.646Z,0.30
2023-01-30T10:43:48.649Z,0.40
2023-01-30T10:46:40.866Z,0.20
2023-01-30T10:49:15.998Z,0.20
2023-01-30T10:52:01.851Z,0.40
2023-01-30T10:54:55.211Z,0.50
2023-01-30T10:57:35.275Z,0.30
2023-01-30T11:00:25.490Z,0.20
2023-01-30T11:03:17.652Z,0.30
2023-01-30T11:05:53.358Z,0.20
2023-01-30T11:08:23.359Z,0.20
2023-01-30T11:10:51.292Z,0.20
2023-01-30T11:13:20.723Z,0.30
2023-01-30T11:15:50.487Z,0.30
2023-01-30T11:19:17.548Z,0.40
2023-01-30T11:21:08.142Z,0.30
2023-01-30T11:23:40.209Z,0.40
2023-01-30T11:26:11.708Z,0.50
2023-01-30T11:28:43.862Z,0.50
2023-01-30T11:31:40.880Z,0.50
2023-01-30T11:34:20.214Z,0.40
2023-01-30T11:36:47.632Z,0.40
2023-01-30T11:39:16.222Z,0.30
2023-01-30T11:42:05.230Z,0.40
2023-01-30T11:44:37.028Z,0.30
2023-01-30T11:47:25.787Z,0.30
2023-01-30T11:50:04.658Z,0.40
2023-01-30T11:52:44.610Z,0.50
2023-01-30T11:55:14.632Z,0.40
2023-01-30T11:57:45.910Z,0.40
2023-01-30T12:00:40.520Z,0.50
2023-01-30T12:03:12.229Z,0.60
2023-01-30T12:05:43.265Z,0.50
2023-01-30T12:08:40.519Z,0.60
2023-01-30T12:11:28.478Z,0.60
2023-01-30T12:14:14.116Z,0.60
2023-01-30T12:17:08.336Z,0.70
2023-01-30T12:19:53.560Z,0.50
2023-01-30T12:22:23.725Z,0.60
2023-01-30T12:25:19.176Z,0.80
2023-01-30T12:28:10.095Z,0.90
2023-01-30T12:30:57.894Z,0.90
2023-01-30T12:33:29.555Z,0.90
2023-01-30T12:36:24.273Z,1.10
2023-01-30T12:39:16.981Z,1.00
2023-01-30T12:41:55.610Z,1.20
2023-01-30T12:44:35.598Z,1.10
2023-01-30T12:47:25.008Z,1.10
2023-01-30T12:50:21.701Z,1.10
2023-01-30T12:53:26.397Z,1.10
2023-01-30T12:56:26.360Z,1.20
2023-01-30T12:59:11.766Z,1.10
2023-01-30T13:02:10.008Z,1.30
2023-01-30T13:04:56.471Z,1.30
2023-01-30T13:07:54.789Z,1.30
2023-01-30T13:10:25.605Z,1.30
2023-01-30T13:13:30.746Z,1.30
2023-01-30T13:16:11.243Z,1.30
2023-01-30T13:18:49.672Z,1.20
2023-01-30T13:21:23.671Z,1.40
2023-01-30T13:23:59.984Z,1.30
2023-01-30T13:26:37.371Z,1.40
2023-01-30T13:29:37.680Z,1.40
2023-01-30T13:32:18.309Z,1.30
2023-01-30T13:34:46.495Z,1.30
2023-01-30T13:37:20.450Z,1.20
2023-01-30T13:39:55.916Z,1.20
2023-01-30T13:42:50.222Z,1.30
2023-01-30T13:45:27.343Z,1.40
2023-01-30T13:48:19.817Z,1.40
2023-01-30T13:51:18.360Z,1.50
2023-01-30T13:54:09.603Z,1.40
2023-01-30T13:56:42.840Z,1.40
2023-01-30T13:59:25.874Z,1.40
2023-01-30T14:02:07.377Z,1.30
2023-01-30T14:04:48.761Z,1.40
2023-01-30T14:07:23.415Z,1.40
2023-01-30T14:10:07.649Z,1.50
2023-01-30T14:12:42.373Z,1.40
2023-01-30T14:15:16.786Z,1.40
2023-01-30T14:18:01.114Z,1.40
2023-01-30T14:20:30.400Z,1.30
2023-01-30T14:23:19.938Z,1.40
2023-01-30T14:25:49.590Z,1.40
2023-01-30T14:28:17.034Z,1.50
2023-01-30T14:30:45.908Z,1.50
2023-01-30T14:33:22.676Z,1.40
2023-01-30T14:36:30.673Z,1.40
2023-01-30T14:39:18.296Z,1.40
2023-01-30T14:41:45.614Z,1.50
2023-01-30T14:44:12.859Z,1.50
2023-01-30T14:46:42.635Z,1.50
2023-01-30T14:49:28.231Z,1.40
2023-01-30T14:51:56.530Z,1.40
2023-01-30T14:54:41.300Z,1.40
2023-01-30T14:57:33.164Z,1.50
2023-01-30T15:00:18.606Z,1.40
2023-01-30T15:02:55.353Z,1.40
2023-01-30T15:05:34.573Z,1.40
2023-01-30T15:08:15.625Z,1.40
2023-01-30T15:10:52.210Z,1.40
2023-01-30T15:13:37.520Z,1.30
2023-01-30T15:16:41.183Z,1.40
2023-01-30T15:19:36.849Z,1.40
2023-01-30T15:22:19.577Z,1.40
2023-01-30T15:25:08.933Z,1.30
2023-01-30T15:28:13.794Z,1.40
2023-01-30T15:30:49.672Z,1.40
2023-01-30T15:33:30.128Z,1.40
2023-01-30T15:35:58.585Z,1.40
2023-01-30T15:38:33.629Z,1.40
2023-01-30T15:41:02.506Z,1.30
2023-01-30T15:43:46.347Z,1.40
2023-01-30T15:46:38.545Z,1.30
2023-01-30T15:49:25.312Z,1.50
2023-01-30T15:51:52.729Z,1.30
2023-01-30T15:54:22.403Z,1.30
2023-01-30T15:56:50.100Z,1.20
2023-01-30T15:59:36.403Z,1.20
2023-01-30T16:02:14.952Z,1.20
2023-01-30T16:04:42.694Z,1.30
2023-01-30T16:07:26.655Z,1.40
2023-01-30T16:10:12.904Z,1.20
2023-01-30T16:12:41.276Z,1.20
2023-01-30T16:15:25.661Z,1.20
2023-01-30T16:18:08.379Z,1.10
2023-01-30T16:20:55.243Z,1.30
2023-01-30T16:23:32.504Z,1.30
2023-01-30T16:26:00.054Z,1.30
2023-01-30T16:28:28.422Z,1.30
2023-01-30T16:31:06.328Z,1.40
2023-01-30T16:33:37.068Z,1.30
2023-01-30T16:36:23.095Z,1.30
2023-01-30T16:38:51.408Z,1.30
2023-01-30T16:41:31.933Z,1.40
2023-01-30T16:44:19.953Z,1.30
2023-01-30T16:47:02.402Z,1.40
2023-01-30T16:49:36.069Z,1.40
2023-01-30T16:52:24.901Z,1.40
2023-01-30T16:54:57.010Z,1.40
2023-01-30T16:57:36.847Z,1.30
2023-01-30T17:00:17.512Z,1.40
2023-01-30T17:02:50.441Z,1.40
2023-01-30T17:05:20.422Z,1.50
2023-01-30T17:07:48.198Z,1.50
2023-01-30T17:10:49.562Z,1.40
2023-01-30T17:13:44.601Z,1.50
2023-01-30T17:16:28.189Z,1.50
2023-01-30T17:18:58.998Z,1.50
2023-01-30T17:21:31.770Z,1.40
2023-01-30T17:24:01.455Z,1.40
2023-01-30T17:26:29.001Z,1.30
2023-01-30T17:28:56.344Z,1.40
2023-01-30T17:31:24.020Z,1.40
2023-01-30T17:33:51.473Z,1.40
2023-01-30T17:36:29.341Z,1.40
2023-01-30T17:38:57.557Z,1.40
2023-01-30T17:41:28.723Z,1.50
2023-01-30T17:43:56.355Z,1.50
2023-01-30T17:46:26.337Z,1.40
2023-01-30T17:48:53.764Z,1.50
2023-01-30T17:51:21.342Z,1.40
2023-01-30T17:53:48.811Z,1.50
2023-01-30T17:56:24.135Z,1.50
2023-01-30T17:58:51.502Z,1.40
2023-01-30T18:01:19.335Z,1.50
2023-01-30T18:03:46.828Z,1.50
2023-01-30T18:06:15.015Z,1.50
2023-01-30T18:08:42.793Z,1.50
2023-01-30T18:11:12.400Z,1.40
2023-01-30T18:13:40.306Z,1.50
2023-01-30T18:16:09.988Z,1.60
2023-01-30T18:18:37.399Z,1.50
2023-01-30T18:21:04.704Z,1.50
2023-01-30T18:23:32.476Z,1.50
2023-01-30T18:26:00.000Z,1.50
2023-01-30T18:28:27.280Z,1.60
2023-01-30T18:30:54.762Z,1.60
2023-01-30T18:33:22.290Z,1.60
2023-01-30T18:35:49.793Z,1.60
2023-01-30T18:38:17.030Z,1.60
2023-01-30T18:40:44.395Z,1.60
2023-01-30T18:43:12.136Z,1.50
2023-01-30T18:45:39.601Z,1.50
2023-01-30T18:48:07.145Z,1.60
2023-01-30T18:50:34.490Z,1.60
2023-01-30T18:53:01.981Z,1.60
2023-01-30T18:55:29.748Z,1.50
2023-01-30T18:57:59.904Z,1.60
2023-01-30T19:00:27.612Z,1.60
2023-01-30T19:02:55.113Z,1.70
2023-01-30T19:05:22.616Z,1.60
2023-01-30T19:07:49.964Z,1.60
2023-01-30T19:10:18.125Z,1.60
2023-01-30T19:13:04.287Z,1.70
2023-01-30T19:15:31.766Z,1.70
2023-01-30T19:17:59.655Z,1.60
2023-01-30T19:20:27.257Z,1.60
2023-01-30T19:22:55.351Z,1.70
2023-01-30T19:25:23.751Z,1.60
2023-01-30T19:27:51.454Z,1.60
2023-01-30T19:30:19.494Z,1.60
2023-01-30T19:32:47.023Z,1.60
2023-01-30T19:35:14.578Z,1.60
2023-01-30T19:37:42.021Z,1.60
2023-01-30T19:40:11.385Z,1.60
2023-01-30T19:42:43.808Z,1.60
2023-01-30T19:45:12.190Z,1.60
2023-01-30T19:47:39.697Z,1.60
2023-01-30T19:50:08.158Z,1.60
2023-01-30T19:52:36.893Z,1.60
2023-01-30T19:55:05.729Z,1.60
2023-01-30T19:57:33.325Z,1.60
2023-01-30T20:00:00.630Z,1.60
2023-01-30T20:02:30.019Z,1.60
2023-01-30T20:04:58.763Z,1.50
2023-01-30T20:07:26.283Z,1.50
2023-01-30T20:09:53.837Z,1.50
2023-01-30T20:12:22.174Z,1.60
2023-01-30T20:14:49.652Z,1.70
2023-01-30T20:17:16.932Z,1.60
2023-01-30T20:19:44.828Z,1.60
2023-01-30T20:22:12.213Z,1.60
2023-01-30T20:24:39.483Z,1.50
2023-01-30T20:27:06.768Z,1.50
2023-01-30T20:29:34.959Z,1.60
2023-01-30T20:32:02.511Z,1.60
2023-01-30T20:34:29.965Z,1.60
2023-01-30T20:36:57.544Z,1.60
2023-01-30T20:39:24.881Z,1.60
2023-01-30T20:41:52.404Z,1.50
2023-01-30T20:44:21.452Z,1.60
2023-01-30T20:46:50.240Z,1.70
2023-01-30T20:49:21.881Z,1.60
2023-01-30T20:51:50.858Z,1.60
2023-01-30T20:54:19.118Z,1.60
2023-01-30T20:56:48.537Z,1.60
2023-01-30T20:59:24.684Z,1.50
2023-01-30T21:01:52.683Z,1.50
2023-01-30T21:04:20.606Z,1.60
2023-01-30T21:06:48.090Z,1.60
2023-01-30T21:09:17.629Z,1.60
2023-01-30T21:11:45.671Z,1.50
2023-01-30T21:14:13.563Z,1.60
2023-01-30T21:16:41.055Z,1.50
2023-01-30T21:19:12.854Z,1.50
2023-01-30T21:21:51.100Z,1.60
2023-01-30T21:24:20.845Z,1.60
2023-01-30T21:26:48.547Z,1.60
2023-01-30T21:29:17.744Z,1.60
2023-01-30T21:31:45.527Z,1.70
2023-01-30T21:34:13.296Z,1.60
2023-01-30T21:36:41.102Z,1.60
2023-01-30T21:39:28.456Z,1.60
2023-01-30T21:42:01.927Z,1.60
2023-01-30T21:44:31.055Z,1.70
2023-01-30T21:46:58.527Z,1.60
2023-01-30T21:49:26.533Z,1.50
2023-01-30T21:51:54.050Z,1.60
2023-01-30T21:54:21.742Z,1.50
2023-01-30T21:56:49.359Z,1.50
2023-01-30T21:59:16.816Z,1.60
2023-01-30T22:01:44.302Z,1.60
2023-01-30T22:04:14.321Z,1.60
2023-01-30T22:06:42.199Z,1.60
2023-01-30T22:09:12.218Z,1.60
2023-01-30T22:11:39.815Z,1.50
2023-01-30T22:14:07.260Z,1.50
2023-01-30T22:16:34.717Z,1.60
2023-01-30T22:19:04.179Z,1.70
2023-01-30T22:21:34.500Z,1.70
2023-01-30T22:24:02.734Z,1.80
2023-01-30T22:26:30.362Z,1.70
2023-01-30T22:28:58.862Z,1.70
2023-01-30T22:31:30.058Z,1.70
2023-01-30T22:33:57.585Z,1.70
2023-01-30T22:36:29.822Z,1.70
2023-01-30T22:38:57.213Z,1.60
2023-01-30T22:41:25.914Z,1.60
2023-01-30T22:43:55.689Z,1.60
2023-01-30T22:46:26.817Z,1.70
2023-01-30T22:48:54.873Z,1.70
2023-01-30T22:51:23.705Z,1.70
2023-01-30T22:53:56.457Z,1.70
2023-01-30T22:56:25.656Z,1.70
2023-01-30T22:58:53.085Z,1.70
2023-01-30T23:01:21.282Z,1.70
2023-01-30T23:03:52.409Z,1.70
2023-01-30T23:06:19.833Z,1.70
2023-01-30T23:08:47.939Z,1.80
2023-01-30T23:11:18.574Z,1.80
2023-01-30T23:13:50.285Z,1.70
2023-01-30T23:16:19.113Z,1.70
2023-01-30T23:18:55.707Z,1.70
2023-01-30T23:21:26.985Z,1.70
2023-01-30T23:23:55.781Z,1.70
2023-01-30T23:26:24.676Z,1.70
2023-01-30T23:28:52.462Z,1.70
2023-01-30T23:31:22.214Z,1.60
2023-01-30T23:34:00.135Z,1.70
2023-01-30T23:36:27.764Z,1.70
2023-01-30T23:38:56.849Z,1.70
2023-01-30T23:41:31.787Z,1.70
2023-01-30T23:43:59.522Z,1.80
2023-01-30T23:46:29.319Z,1.70
2023-01-30T23:48:58.072Z,1.70
2023-01-30T23:51:28.302Z,1.60
2023-01-30T23:53:55.815Z,1.70
2023-01-30T23:56:24.028Z,1.50
2023-01-30T23:58:51.456Z,1.50
